sensor_id;sensor_type;location;lat;lon;timestamp;P1;durP1;ratioP1;P2;durP2;ratioP2
11518;SDS011;5816;48.228;14.116;2023-01-01T08:58:43;1999.90;;;999.90;;
11518;SDS011;5816;48.228;14.116;2023-01-01T09:03:45;1999.90;;;999.90;;
11518;SDS011;5816;48.228;14.116;2023-01-01T09:08:47;1999.90;;;999.90;;
11518;SDS011;5816;48.228;14.116;2023-01-01T09:13:48;1999.90;;;999.90;;
11518;SDS011;5816;48.228;14.116;2023-01-01T09:28:29;1999.90;;;999.90;;
11518;SDS011;5816;48.228;14.116;2023-01-01T09:33:31;1999.90;;;999.90;;
11518;SDS011;5816;48.228;14.116;2023-01-01T09:48:05;1999.90;;;999.90;;
11518;SDS011;5816;48.228;14.116;2023-01-01T09:49:17;1999.90;;;999.90;;
11518;SDS011;5816;48.228;14.116;2023-01-01T09:52:36;1999.90;;;999.90;;
11518;SDS011;5816;48.228;14.116;2023-01-01T09:53:44;1999.90;;;999.90;;
11518;SDS011;5816;48.228;14.116;2023-01-01T09:55:14;1999.90;;;999.90;;
11518;SDS011;5816;48.228;14.116;2023-01-01T09:56:31;1999.90;;;999.90;;
11518;SDS011;5816;48.228;14.116;2023-01-01T09:57:35;1999.90;;;999.90;;
11518;SDS011;5816;48.228;14.116;2023-01-01T09:58:37;1999.90;;;999.90;;
11518;SDS011;5816;48.228;14.116;2023-01-01T09:59:38;1999.90;;;999.90;;
11518;SDS011;5816;48.228;14.116;2023-01-01T10:01:27;1999.90;;;999.90;;
11518;SDS011;5816;48.228;14.116;2023-01-01T10:02:41;1999.90;;;999.90;;
11518;SDS011;5816;48.228;14.116;2023-01-01T10:15:34;13.23;;;8.23;;
11518;SDS011;5816;48.228;14.116;2023-01-01T10:16:39;11.37;;;10.27;;
11518;SDS011;5816;48.228;14.116;2023-01-01T10:26:30;28.03;;;25.57;;
11518;SDS011;5816;48.228;14.116;2023-01-01T10:31:34;30.57;;;28.07;;
11518;SDS011;5816;48.228;14.116;2023-01-01T10:36:37;32.30;;;29.40;;
11518;SDS011;5816;48.228;14.116;2023-01-01T10:41:40;36.93;;;33.50;;
11518;SDS011;5816;48.228;14.116;2023-01-01T10:46:46;41.63;;;37.50;;
11518;SDS011;5816;48.228;14.116;2023-01-01T10:51:51;41.40;;;37.13;;
11518;SDS011;5816;48.228;14.116;2023-01-01T10:56:53;42.10;;;37.63;;
11518;SDS011;5816;48.228;14.116;2023-01-01T11:02:10;39.53;;;34.40;;
11518;SDS011;5816;48.228;14.116;2023-01-01T11:07:34;43.67;;;39.10;;
11518;SDS011;5816;48.228;14.116;2023-01-01T11:12:36;44.67;;;39.87;;
11518;SDS011;5816;48.228;14.116;2023-01-01T11:18:02;42.57;;;38.17;;
11518;SDS011;5816;48.228;14.116;2023-01-01T11:28:31;52.20;;;45.13;;
11518;SDS011;5816;48.228;14.116;2023-01-01T11:33:36;54.33;;;48.47;;
11518;SDS011;5816;48.228;14.116;2023-01-01T11:38:43;55.57;;;47.97;;
11518;SDS011;5816;48.228;14.116;2023-01-01T11:43:45;60.40;;;51.37;;
11518;SDS011;5816;48.228;14.116;2023-01-01T11:48:47;54.20;;;47.57;;
11518;SDS011;5816;48.228;14.116;2023-01-01T11:53:49;52.37;;;46.83;;
11518;SDS011;5816;48.228;14.116;2023-01-01T11:58:57;52.87;;;46.80;;
11518;SDS011;5816;48.228;14.116;2023-01-01T12:09:57;52.80;;;42.67;;
11518;SDS011;5816;48.228;14.116;2023-01-01T12:15:17;47.23;;;42.23;;
11518;SDS011;5816;48.228;14.116;2023-01-01T12:20:27;47.40;;;40.83;;
11518;SDS011;5816;48.228;14.116;2023-01-01T12:25:38;48.83;;;42.53;;
11518;SDS011;5816;48.228;14.116;2023-01-01T12:31:02;48.80;;;43.50;;
11518;SDS011;5816;48.228;14.116;2023-01-01T12:41:42;47.07;;;42.07;;
11518;SDS011;5816;48.228;14.116;2023-01-01T13:07:54;44.83;;;40.10;;
11518;SDS011;5816;48.228;14.116;2023-01-01T13:13:00;44.73;;;40.03;;
11518;SDS011;5816;48.228;14.116;2023-01-01T13:18:07;43.37;;;38.87;;
11518;SDS011;5816;48.228;14.116;2023-01-01T13:28:38;40.23;;;36.13;;
11518;SDS011;5816;48.228;14.116;2023-01-01T13:33:40;39.87;;;35.80;;
11518;SDS011;5816;48.228;14.116;2023-01-01T13:43:49;37.97;;;34.13;;
11518;SDS011;5816;48.228;14.116;2023-01-01T14:05:10;41.83;;;37.73;;
11518;SDS011;5816;48.228;14.116;2023-01-01T14:10:22;41.97;;;37.93;;
11518;SDS011;5816;48.228;14.116;2023-01-01T14:15:29;41.87;;;37.87;;
11518;SDS011;5816;48.228;14.116;2023-01-01T14:20:42;42.57;;;38.20;;
11518;SDS011;5816;48.228;14.116;2023-01-01T14:25:45;39.57;;;35.70;;
11518;SDS011;5816;48.228;14.116;2023-01-01T14:30:47;39.97;;;36.10;;
11518;SDS011;5816;48.228;14.116;2023-01-01T14:35:51;46.00;;;41.67;;
11518;SDS011;5816;48.228;14.116;2023-01-01T14:41:22;44.40;;;40.20;;
11518;SDS011;5816;48.228;14.116;2023-01-01T14:46:38;43.73;;;39.40;;
11518;SDS011;5816;48.228;14.116;2023-01-01T14:51:43;42.70;;;38.43;;
11518;SDS011;5816;48.228;14.116;2023-01-01T14:56:47;44.70;;;40.17;;
11518;SDS011;5816;48.228;14.116;2023-01-01T15:02:00;45.37;;;41.03;;
11518;SDS011;5816;48.228;14.116;2023-01-01T15:07:04;43.13;;;38.93;;
11518;SDS011;5816;48.228;14.116;2023-01-01T15:12:09;42.30;;;38.27;;
11518;SDS011;5816;48.228;14.116;2023-01-01T15:17:15;44.87;;;40.57;;
11518;SDS011;5816;48.228;14.116;2023-01-01T15:22:26;44.57;;;40.07;;
11518;SDS011;5816;48.228;14.116;2023-01-01T15:27:33;40.80;;;37.00;;
11518;SDS011;5816;48.228;14.116;2023-01-01T15:32:37;40.10;;;36.23;;
11518;SDS011;5816;48.228;14.116;2023-01-01T15:37:43;39.70;;;36.00;;
11518;SDS011;5816;48.228;14.116;2023-01-01T15:48:17;39.60;;;35.87;;
11518;SDS011;5816;48.228;14.116;2023-01-01T15:53:23;38.27;;;34.83;;
11518;SDS011;5816;48.228;14.116;2023-01-01T15:58:31;40.63;;;36.77;;
11518;SDS011;5816;48.228;14.116;2023-01-01T16:03:33;40.87;;;37.03;;
11518;SDS011;5816;48.228;14.116;2023-01-01T16:08:38;41.67;;;37.53;;
11518;SDS011;5816;48.228;14.116;2023-01-01T16:13:40;43.23;;;38.93;;
11518;SDS011;5816;48.228;14.116;2023-01-01T16:18:42;41.17;;;37.37;;
11518;SDS011;5816;48.228;14.116;2023-01-01T16:23:44;41.77;;;37.67;;
11518;SDS011;5816;48.228;14.116;2023-01-01T16:28:46;38.40;;;34.83;;
11518;SDS011;5816;48.228;14.116;2023-01-01T16:33:52;39.13;;;35.43;;
11518;SDS011;5816;48.228;14.116;2023-01-01T16:38:56;37.87;;;34.47;;
11518;SDS011;5816;48.228;14.116;2023-01-01T16:43:58;36.90;;;33.50;;
11518;SDS011;5816;48.228;14.116;2023-01-01T16:49:00;39.17;;;35.40;;
11518;SDS011;5816;48.228;14.116;2023-01-01T16:54:02;38.70;;;35.20;;
11518;SDS011;5816;48.228;14.116;2023-01-01T16:59:04;37.27;;;33.83;;
11518;SDS011;5816;48.228;14.116;2023-01-01T17:04:05;36.67;;;33.33;;
11518;SDS011;5816;48.228;14.116;2023-01-01T17:09:07;36.83;;;33.30;;
11518;SDS011;5816;48.228;14.116;2023-01-01T17:14:09;38.23;;;34.53;;
11518;SDS011;5816;48.228;14.116;2023-01-01T17:19:11;36.33;;;32.77;;
11518;SDS011;5816;48.228;14.116;2023-01-01T17:24:16;37.73;;;34.07;;
11518;SDS011;5816;48.228;14.116;2023-01-01T17:29:20;38.47;;;34.83;;
11518;SDS011;5816;48.228;14.116;2023-01-01T17:34:22;38.43;;;34.93;;
11518;SDS011;5816;48.228;14.116;2023-01-01T17:39:24;38.83;;;35.13;;
11518;SDS011;5816;48.228;14.116;2023-01-01T17:44:25;39.07;;;35.17;;
11518;SDS011;5816;48.228;14.116;2023-01-01T17:49:27;36.13;;;32.83;;
11518;SDS011;5816;48.228;14.116;2023-01-01T17:54:28;36.23;;;33.00;;
11518;SDS011;5816;48.228;14.116;2023-01-01T17:59:30;35.97;;;32.67;;
11518;SDS011;5816;48.228;14.116;2023-01-01T18:04:32;34.30;;;31.10;;
11518;SDS011;5816;48.228;14.116;2023-01-01T18:09:34;35.27;;;31.77;;
11518;SDS011;5816;48.228;14.116;2023-01-01T18:14:38;34.93;;;31.53;;
11518;SDS011;5816;48.228;14.116;2023-01-01T18:19:40;33.87;;;30.70;;
11518;SDS011;5816;48.228;14.116;2023-01-01T18:24:42;34.80;;;31.60;;
11518;SDS011;5816;48.228;14.116;2023-01-01T18:29:44;36.97;;;33.37;;
11518;SDS011;5816;48.228;14.116;2023-01-01T18:34:45;40.03;;;35.73;;
11518;SDS011;5816;48.228;14.116;2023-01-01T18:39:47;41.67;;;35.83;;
11518;SDS011;5816;48.228;14.116;2023-01-01T18:44:49;37.60;;;33.73;;
11518;SDS011;5816;48.228;14.116;2023-01-01T18:49:52;37.80;;;34.10;;
11518;SDS011;5816;48.228;14.116;2023-01-01T19:05:19;41.50;;;34.50;;
11518;SDS011;5816;48.228;14.116;2023-01-01T19:10:34;38.20;;;34.50;;
11518;SDS011;5816;48.228;14.116;2023-01-01T19:15:38;38.00;;;34.03;;
11518;SDS011;5816;48.228;14.116;2023-01-01T19:20:40;37.70;;;33.83;;
11518;SDS011;5816;48.228;14.116;2023-01-01T19:25:42;43.27;;;36.53;;
11518;SDS011;5816;48.228;14.116;2023-01-01T19:30:44;40.93;;;36.50;;
11518;SDS011;5816;48.228;14.116;2023-01-01T19:35:46;42.07;;;37.37;;
11518;SDS011;5816;48.228;14.116;2023-01-01T19:40:48;45.40;;;39.63;;
11518;SDS011;5816;48.228;14.116;2023-01-01T19:45:50;45.93;;;39.63;;
11518;SDS011;5816;48.228;14.116;2023-01-01T19:50:51;48.07;;;41.70;;
11518;SDS011;5816;48.228;14.116;2023-01-01T19:55:53;61.20;;;44.73;;
11518;SDS011;5816;48.228;14.116;2023-01-01T20:00:55;66.77;;;47.77;;
11518;SDS011;5816;48.228;14.116;2023-01-01T20:05:57;72.40;;;53.07;;
11518;SDS011;5816;48.228;14.116;2023-01-01T20:10:58;64.27;;;50.90;;
11518;SDS011;5816;48.228;14.116;2023-01-01T20:16:00;69.13;;;51.57;;
11518;SDS011;5816;48.228;14.116;2023-01-01T20:21:03;67.83;;;51.17;;
11518;SDS011;5816;48.228;14.116;2023-01-01T20:26:27;70.33;;;50.37;;
11518;SDS011;5816;48.228;14.116;2023-01-01T20:31:29;63.07;;;49.07;;
11518;SDS011;5816;48.228;14.116;2023-01-01T20:36:31;65.10;;;50.33;;
11518;SDS011;5816;48.228;14.116;2023-01-01T20:41:52;68.87;;;50.77;;
11518;SDS011;5816;48.228;14.116;2023-01-01T20:46:54;64.73;;;50.80;;
11518;SDS011;5816;48.228;14.116;2023-01-01T20:51:56;59.33;;;48.33;;
11518;SDS011;5816;48.228;14.116;2023-01-01T20:56:57;57.10;;;47.10;;
11518;SDS011;5816;48.228;14.116;2023-01-01T21:01:59;59.33;;;48.90;;
11518;SDS011;5816;48.228;14.116;2023-01-01T21:07:01;61.47;;;49.47;;
11518;SDS011;5816;48.228;14.116;2023-01-01T21:12:03;73.13;;;55.97;;
11518;SDS011;5816;48.228;14.116;2023-01-01T21:17:19;76.80;;;58.90;;
11518;SDS011;5816;48.228;14.116;2023-01-01T21:22:23;71.03;;;55.67;;
11518;SDS011;5816;48.228;14.116;2023-01-01T21:27:28;66.47;;;54.50;;
11518;SDS011;5816;48.228;14.116;2023-01-01T21:32:37;64.83;;;51.43;;
11518;SDS011;5816;48.228;14.116;2023-01-01T21:37:42;58.20;;;50.10;;
11518;SDS011;5816;48.228;14.116;2023-01-01T21:42:47;62.03;;;50.30;;
